sensor_id;sensor_type;location;lat;lon;timestamp;P1;durP1;ratioP1;P2;durP2;ratioP2
47455;SDS011;33202;48.512;-2.780;2023-03-14T00:01:27;6.30;;;1.23;;
47455;SDS011;33202;48.512;-2.780;2023-03-14T00:03:53;10.77;;;1.55;;
47455;SDS011;33202;48.512;-2.780;2023-03-14T00:06:19;14.70;;;2.28;;
47455;SDS011;33202;48.512;-2.780;2023-03-14T00:08:45;11.30;;;2.10;;
47455;SDS011;33202;48.512;-2.780;2023-03-14T00:11:13;9.95;;;1.98;;
47455;SDS011;33202;48.512;-2.780;2023-03-14T00:13:39;12.60;;;2.25;;
47455;SDS011;33202;48.512;-2.780;2023-03-14T00:16:06;14.77;;;3.10;;
47455;SDS011;33202;48.512;-2.780;2023-03-14T00:18:33;16.65;;;3.08;;
47455;SDS011;33202;48.512;-2.780;2023-03-14T00:20:59;10.07;;;2.17;;
47455;SDS011;33202;48.512;-2.780;2023-03-14T00:23:26;17.40;;;2.55;;
47455;SDS011;33202;48.512;-2.780;2023-03-14T00:25:53;16.25;;;2.80;;
47455;SDS011;33202;48.512;-2.780;2023-03-14T00:28:19;11.63;;;2.05;;
47455;SDS011;33202;48.512;-2.780;2023-03-14T00:30:45;17.23;;;3.20;;
47455;SDS011;33202;48.512;-2.780;2023-03-14T00:33:11;13.15;;;2.95;;
47455;SDS011;33202;48.512;-2.780;2023-03-14T00:35:37;12.90;;;2.35;;
47455;SDS011;33202;48.512;-2.780;2023-03-14T00:38:03;10.85;;;2.55;;
47455;SDS011;33202;48.512;-2.780;2023-03-14T00:40:29;11.63;;;3.08;;
47455;SDS011;33202;48.512;-2.780;2023-03-14T00:42:55;16.48;;;2.72;;
47455;SDS011;33202;48.512;-2.780;2023-03-14T00:45:21;18.10;;;2.55;;
47455;SDS011;33202;48.512;-2.780;2023-03-14T00:47:47;15.18;;;2.80;;
47455;SDS011;33202;48.512;-2.780;2023-03-14T00:50:14;13.88;;;2.47;;
47455;SDS011;33202;48.512;-2.780;2023-03-14T00:52:40;11.63;;;2.85;;
47455;SDS011;33202;48.512;-2.780;2023-03-14T00:55:06;15.68;;;2.97;;
47455;SDS011;33202;48.512;-2.780;2023-03-14T00:57:32;14.25;;;2.35;;
47455;SDS011;33202;48.512;-2.780;2023-03-14T00:59:58;14.77;;;2.10;;
47455;SDS011;33202;48.512;-2.780;2023-03-14T01:02:24;16.45;;;2.40;;
47455;SDS011;33202;48.512;-2.780;2023-03-14T01:04:50;14.43;;;2.47;;
47455;SDS011;33202;48.512;-2.780;2023-03-14T01:07:16;16.05;;;2.85;;
47455;SDS011;33202;48.512;-2.780;2023-03-14T01:09:42;12.43;;;2.30;;
47455;SDS011;33202;48.512;-2.780;2023-03-14T01:12:08;13.63;;;2.55;;
47455;SDS011;33202;48.512;-2.780;2023-03-14T01:14:34;14.52;;;2.80;;
47455;SDS011;33202;48.512;-2.780;2023-03-14T01:17:01;18.75;;;3.38;;
47455;SDS011;33202;48.512;-2.780;2023-03-14T01:19:27;19.08;;;2.78;;
47455;SDS011;33202;48.512;-2.780;2023-03-14T01:21:54;13.93;;;2.97;;
47455;SDS011;33202;48.512;-2.780;2023-03-14T01:24:20;22.73;;;3.85;;
47455;SDS011;33202;48.512;-2.780;2023-03-14T01:26:46;16.50;;;3.08;;
47455;SDS011;33202;48.512;-2.780;2023-03-14T01:29:12;20.92;;;4.18;;
47455;SDS011;33202;48.512;-2.780;2023-03-14T01:31:38;21.48;;;2.90;;
47455;SDS011;33202;48.512;-2.780;2023-03-14T01:34:04;16.60;;;4.20;;
47455;SDS011;33202;48.512;-2.780;2023-03-14T01:36:30;14.75;;;2.55;;
47455;SDS011;33202;48.512;-2.780;2023-03-14T01:38:56;16.77;;;2.65;;
47455;SDS011;33202;48.512;-2.780;2023-03-14T01:41:23;16.85;;;3.15;;
47455;SDS011;33202;48.512;-2.780;2023-03-14T01:43:50;21.48;;;3.20;;
47455;SDS011;33202;48.512;-2.780;2023-03-14T01:46:20;24.95;;;3.20;;
47455;SDS011;33202;48.512;-2.780;2023-03-14T01:48:50;21.15;;;3.72;;
47455;SDS011;33202;48.512;-2.780;2023-03-14T01:51:20;18.67;;;2.42;;
47455;SDS011;33202;48.512;-2.780;2023-03-14T01:53:47;14.35;;;2.70;;
47455;SDS011;33202;48.512;-2.780;2023-03-14T01:56:15;22.20;;;2.55;;
47455;SDS011;33202;48.512;-2.780;2023-03-14T01:58:42;18.35;;;3.50;;
47455;SDS011;33202;48.512;-2.780;2023-03-14T02:01:11;22.52;;;3.05;;
47455;SDS011;33202;48.512;-2.780;2023-03-14T02:03:38;11.85;;;2.45;;
47455;SDS011;33202;48.512;-2.780;2023-03-14T02:06:06;15.13;;;2.55;;
47455;SDS011;33202;48.512;-2.780;2023-03-14T02:08:33;14.30;;;2.58;;
47455;SDS011;33202;48.512;-2.780;2023-03-14T02:11:01;10.80;;;2.88;;
47455;SDS011;33202;48.512;-2.780;2023-03-14T02:13:27;17.98;;;2.97;;
47455;SDS011;33202;48.512;-2.780;2023-03-14T02:15:53;20.25;;;2.97;;
47455;SDS011;33202;48.512;-2.780;2023-03-14T02:18:19;19.77;;;3.40;;
47455;SDS011;33202;48.512;-2.780;2023-03-14T02:20:57;19.98;;;3.47;;
47455;SDS011;33202;48.512;-2.780;2023-03-14T02:23:37;20.35;;;3.47;;
47455;SDS011;33202;48.512;-2.780;2023-03-14T02:28:34;21.05;;;3.67;;
47455;SDS011;33202;48.512;-2.780;2023-03-14T02:31:00;17.48;;;3.25;;
47455;SDS011;33202;48.512;-2.780;2023-03-14T02:33:26;21.52;;;3.47;;
47455;SDS011;33202;48.512;-2.780;2023-03-14T02:35:53;17.40;;;2.75;;
47455;SDS011;33202;48.512;-2.780;2023-03-14T02:38:34;10.88;;;2.88;;
47455;SDS011;33202;48.512;-2.780;2023-03-14T02:41:01;19.02;;;3.58;;
47455;SDS011;33202;48.512;-2.780;2023-03-14T02:43:28;15.35;;;2.83;;
47455;SDS011;33202;48.512;-2.780;2023-03-14T02:45:54;15.32;;;3.08;;
47455;SDS011;33202;48.512;-2.780;2023-03-14T02:48:21;17.67;;;2.75;;
47455;SDS011;33202;48.512;-2.780;2023-03-14T02:50:48;15.48;;;2.85;;
47455;SDS011;33202;48.512;-2.780;2023-03-14T02:55:44;18.65;;;3.33;;
47455;SDS011;33202;48.512;-2.780;2023-03-14T02:58:10;13.55;;;2.40;;
47455;SDS011;33202;48.512;-2.780;2023-03-14T03:00:36;28.40;;;3.75;;
47455;SDS011;33202;48.512;-2.780;2023-03-14T03:03:02;19.27;;;3.22;;
47455;SDS011;33202;48.512;-2.780;2023-03-14T03:05:30;19.15;;;2.70;;
47455;SDS011;33202;48.512;-2.780;2023-03-14T03:07:56;21.15;;;3.08;;
47455;SDS011;33202;48.512;-2.780;2023-03-14T03:10:22;24.83;;;3.33;;
47455;SDS011;33202;48.512;-2.780;2023-03-14T03:12:49;14.32;;;2.90;;
47455;SDS011;33202;48.512;-2.780;2023-03-14T03:15:15;18.30;;;2.97;;
47455;SDS011;33202;48.512;-2.780;2023-03-14T03:17:41;18.55;;;3.10;;
47455;SDS011;33202;48.512;-2.780;2023-03-14T03:20:07;16.15;;;3.38;;
47455;SDS011;33202;48.512;-2.780;2023-03-14T03:22:34;15.13;;;2.42;;
47455;SDS011;33202;48.512;-2.780;2023-03-14T03:25:00;20.80;;;3.25;;
47455;SDS011;33202;48.512;-2.780;2023-03-14T03:27:29;13.43;;;2.75;;
47455;SDS011;33202;48.512;-2.780;2023-03-14T03:29:55;17.05;;;3.50;;
47455;SDS011;33202;48.512;-2.780;2023-03-14T03:32:21;17.13;;;2.65;;
47455;SDS011;33202;48.512;-2.780;2023-03-14T03:34:47;18.30;;;3.03;;
47455;SDS011;33202;48.512;-2.780;2023-03-14T03:37:13;16.55;;;2.40;;
47455;SDS011;33202;48.512;-2.780;2023-03-14T03:39:39;18.40;;;3.05;;
47455;SDS011;33202;48.512;-2.780;2023-03-14T03:42:05;23.02;;;3.45;;
47455;SDS011;33202;48.512;-2.780;2023-03-14T03:44:31;17.65;;;2.97;;
47455;SDS011;33202;48.512;-2.780;2023-03-14T03:46:57;17.65;;;3.00;;
47455;SDS011;33202;48.512;-2.780;2023-03-14T03:49:23;15.70;;;3.22;;
47455;SDS011;33202;48.512;-2.780;2023-03-14T03:51:49;20.25;;;3.40;;
47455;SDS011;33202;48.512;-2.780;2023-03-14T03:54:15;16.80;;;2.85;;
47455;SDS011;33202;48.512;-2.780;2023-03-14T03:56:41;17.00;;;2.70;;
47455;SDS011;33202;48.512;-2.780;2023-03-14T03:59:07;16.13;;;3.20;;
47455;SDS011;33202;48.512;-2.780;2023-03-14T04:01:33;16.80;;;2.92;;
47455;SDS011;33202;48.512;-2.780;2023-03-14T04:03:59;15.38;;;2.88;;
47455;SDS011;33202;48.512;-2.780;2023-03-14T04:06:25;23.80;;;4.28;;
47455;SDS011;33202;48.512;-2.780;2023-03-14T04:08:51;22.75;;;3.28;;
47455;SDS011;33202;48.512;-2.780;2023-03-14T04:11:17;22.27;;;4.25;;
47455;SDS011;33202;48.512;-2.780;2023-03-14T04:13:43;20.92;;;4.22;;
47455;SDS011;33202;48.512;-2.780;2023-03-14T04:16:19;18.10;;;2.88;;
47455;SDS011;33202;48.512;-2.780;2023-03-14T04:18:45;16.08;;;3.22;;
47455;SDS011;33202;48.512;-2.780;2023-03-14T04:21:11;15.63;;;2.70;;
47455;SDS011;33202;48.512;-2.780;2023-03-14T04:23:37;12.77;;;3.47;;
47455;SDS011;33202;48.512;-2.780;2023-03-14T04:26:04;12.18;;;2.40;;
47455;SDS011;33202;48.512;-2.780;2023-03-14T04:28:30;10.70;;;2.15;;
47455;SDS011;33202;48.512;-2.780;2023-03-14T04:30:56;14.25;;;2.78;;
47455;SDS011;33202;48.512;-2.780;2023-03-14T04:33:22;12.18;;;2.40;;
47455;SDS011;33202;48.512;-2.780;2023-03-14T04:35:48;14.52;;;1.80;;
47455;SDS011;33202;48.512;-2.780;2023-03-14T04:38:17;9.95;;;2.13;;
47455;SDS011;33202;48.512;-2.780;2023-03-14T04:40:43;15.07;;;2.42;;
47455;SDS011;33202;48.512;-2.780;2023-03-14T04:43:10;9.45;;;1.85;;
47455;SDS011;33202;48.512;-2.780;2023-03-14T04:45:36;14.57;;;2.85;;
47455;SDS011;33202;48.512;-2.780;2023-03-14T04:48:02;14.70;;;2.33;;
47455;SDS011;33202;48.512;-2.780;2023-03-14T04:50:28;14.15;;;2.42;;
47455;SDS011;33202;48.512;-2.780;2023-03-14T04:52:54;17.98;;;3.05;;
47455;SDS011;33202;48.512;-2.780;2023-03-14T04:55:20;11.90;;;2.30;;
47455;SDS011;33202;48.512;-2.780;2023-03-14T04:57:46;12.38;;;2.45;;
47455;SDS011;33202;48.512;-2.780;2023-03-14T05:00:12;20.05;;;3.92;;
47455;SDS011;33202;48.512;-2.780;2023-03-14T05:02:38;15.68;;;2.50;;
47455;SDS011;33202;48.512;-2.780;2023-03-14T05:05:04;21.50;;;2.85;;
47455;SDS011;33202;48.512;-2.780;2023-03-14T05:07:30;17.42;;;2.78;;
47455;SDS011;33202;48.512;-2.780;2023-03-14T05:09:56;15.32;;;2.47;;
47455;SDS011;33202;48.512;-2.780;2023-03-14T05:12:22;11.25;;;2.28;;
47455;SDS011;33202;48.512;-2.780;2023-03-14T05:14:48;16.38;;;2.90;;
47455;SDS011;33202;48.512;-2.780;2023-03-14T05:17:14;15.43;;;2.90;;
47455;SDS011;33202;48.512;-2.780;2023-03-14T05:19:41;20.48;;;3.83;;
47455;SDS011;33202;48.512;-2.780;2023-03-14T05:22:07;14.40;;;2.75;;
47455;SDS011;33202;48.512;-2.780;2023-03-14T05:24:33;12.65;;;2.35;;
47455;SDS011;33202;48.512;-2.780;2023-03-14T05:26:59;15.88;;;3.08;;
47455;SDS011;33202;48.512;-2.780;2023-03-14T05:29:25;16.90;;;3.42;;
47455;SDS011;33202;48.512;-2.780;2023-03-14T05:31:51;20.40;;;3.90;;
47455;SDS011;33202;48.512;-2.780;2023-03-14T05:34:17;16.27;;;2.20;;
47455;SDS011;33202;48.512;-2.780;2023-03-14T05:36:43;18.20;;;3.38;;
47455;SDS011;33202;48.512;-2.780;2023-03-14T05:39:09;11.45;;;2.63;;
47455;SDS011;33202;48.512;-2.780;2023-03-14T05:41:35;10.60;;;2.42;;
47455;SDS011;33202;48.512;-2.780;2023-03-14T05:44:01;19.08;;;2.75;;
47455;SDS011;33202;48.512;-2.780;2023-03-14T05:46:27;14.15;;;2.88;;
47455;SDS011;33202;48.512;-2.780;2023-03-14T05:48:55;9.63;;;2.30;;
47455;SDS011;33202;48.512;-2.780;2023-03-14T05:51:22;16.50;;;2.43;;
47455;SDS011;33202;48.512;-2.780;2023-03-14T05:53:48;12.90;;;2.78;;
47455;SDS011;33202;48.512;-2.780;2023-03-14T05:56:14;15.57;;;3.22;;
47455;SDS011;33202;48.512;-2.780;2023-03-14T05:58:40;13.35;;;2.70;;
47455;SDS011;33202;48.512;-2.780;2023-03-14T06:01:07;16.35;;;2.22;;
47455;SDS011;33202;48.512;-2.780;2023-03-14T06:03:33;13.45;;;2.35;;
47455;SDS011;33202;48.512;-2.780;2023-03-14T06:05:59;12.18;;;2.47;;
47455;SDS011;33202;48.512;-2.780;2023-03-14T06:08:26;14.23;;;2.90;;
47455;SDS011;33202;48.512;-2.780;2023-03-14T06:10:53;13.32;;;2.92;;
47455;SDS011;33202;48.512;-2.780;2023-03-14T06:13:19;18.38;;;3.50;;
47455;SDS011;33202;48.512;-2.780;2023-03-14T06:15:45;17.73;;;3.45;;
47455;SDS011;33202;48.512;-2.780;2023-03-14T06:18:11;9.88;;;2.17;;
47455;SDS011;33202;48.512;-2.780;2023-03-14T06:20:39;16.30;;;1.85;;
47455;SDS011;33202;48.512;-2.780;2023-03-14T06:23:05;9.05;;;1.70;;
47455;SDS011;33202;48.512;-2.780;2023-03-14T06:25:32;10.82;;;1.70;;
47455;SDS011;33202;48.512;-2.780;2023-03-14T06:27:58;6.95;;;1.40;;
47455;SDS011;33202;48.512;-2.780;2023-03-14T06:30:24;8.98;;;1.27;;
47455;SDS011;33202;48.512;-2.780;2023-03-14T06:32:50;8.90;;;1.50;;
47455;SDS011;33202;48.512;-2.780;2023-03-14T06:35:16;8.85;;;1.50;;
47455;SDS011;33202;48.512;-2.780;2023-03-14T06:37:42;8.68;;;1.30;;
47455;SDS011;33202;48.512;-2.780;2023-03-14T06:40:09;9.93;;;1.60;;
47455;SDS011;33202;48.512;-2.780;2023-03-14T06:42:35;11.00;;;1.55;;
47455;SDS011;33202;48.512;-2.780;2023-03-14T06:45:01;8.65;;;1.65;;
47455;SDS011;33202;48.512;-2.780;2023-03-14T06:47:28;11.60;;;2.88;;
47455;SDS011;33202;48.512;-2.780;2023-03-14T06:49:54;10.32;;;1.52;;
47455;SDS011;33202;48.512;-2.780;2023-03-14T06:52:20;10.57;;;1.90;;
47455;SDS011;33202;48.512;-2.780;2023-03-14T06:54:46;13.88;;;2.83;;
47455;SDS011;33202;48.512;-2.780;2023-03-14T06:57:12;14.00;;;1.90;;
47455;SDS011;33202;48.512;-2.780;2023-03-14T06:59:38;13.30;;;2.20;;
47455;SDS011;33202;48.512;-2.780;2023-03-14T07:02:04;10.90;;;1.90;;
47455;SDS011;33202;48.512;-2.780;2023-03-14T07:04:30;10.63;;;2.35;;
47455;SDS011;33202;48.512;-2.780;2023-03-14T07:06:56;13.40;;;2.05;;
47455;SDS011;33202;48.512;-2.780;2023-03-14T07:09:22;7.88;;;2.22;;
47455;SDS011;33202;48.512;-2.780;2023-03-14T07:11:48;11.85;;;2.97;;
47455;SDS011;33202;48.512;-2.780;2023-03-14T07:14:14;8.40;;;1.73;;
47455;SDS011;33202;48.512;-2.780;2023-03-14T07:16:40;13.18;;;2.15;;
47455;SDS011;33202;48.512;-2.780;2023-03-14T07:19:06;11.13;;;2.00;;
47455;SDS011;33202;48.512;-2.780;2023-03-14T07:21:32;11.40;;;1.60;;
47455;SDS011;33202;48.512;-2.780;2023-03-14T07:26:25;8.63;;;1.98;;
47455;SDS011;33202;48.512;-2.780;2023-03-14T07:28:51;10.05;;;1.70;;
47455;SDS011;33202;48.512;-2.780;2023-03-14T07:31:17;10.75;;;1.90;;
47455;SDS011;33202;48.512;-2.780;2023-03-14T07:33:43;14.10;;;2.55;;
47455;SDS011;33202;48.512;-2.780;2023-03-14T07:36:10;11.98;;;1.95;;
47455;SDS011;33202;48.512;-2.780;2023-03-14T07:38:36;12.88;;;2.72;;
47455;SDS011;33202;48.512;-2.780;2023-03-14T07:41:02;9.23;;;2.20;;
47455;SDS011;33202;48.512;-2.780;2023-03-14T07:43:29;14.23;;;1.88;;
47455;SDS011;33202;48.512;-2.780;2023-03-14T07:45:55;12.10;;;1.60;;
47455;SDS011;33202;48.512;-2.780;2023-03-14T07:48:21;13.18;;;2.58;;
47455;SDS011;33202;48.512;-2.780;2023-03-14T07:50:49;13.48;;;1.73;;
47455;SDS011;33202;48.512;-2.780;2023-03-14T07:53:15;9.52;;;1.55;;
47455;SDS011;33202;48.512;-2.780;2023-03-14T07:55:41;9.55;;;1.50;;
47455;SDS011;33202;48.512;-2.780;2023-03-14T07:58:07;9.05;;;1.70;;
47455;SDS011;33202;48.512;-2.780;2023-03-14T08:00:33;12.45;;;2.00;;
47455;SDS011;33202;48.512;-2.780;2023-03-14T08:02:59;16.98;;;2.03;;
47455;SDS011;33202;48.512;-2.780;2023-03-14T08:05:26;14.27;;;3.08;;
47455;SDS011;33202;48.512;-2.780;2023-03-14T08:07:52;10.50;;;1.90;;
47455;SDS011;33202;48.512;-2.780;2023-03-14T08:10:18;8.98;;;1.77;;
47455;SDS011;33202;48.512;-2.780;2023-03-14T08:12:48;11.48;;;1.85;;
47455;SDS011;33202;48.512;-2.780;2023-03-14T08:15:14;12.52;;;2.13;;
47455;SDS011;33202;48.512;-2.780;2023-03-14T08:17:40;6.85;;;1.50;;
47455;SDS011;33202;48.512;-2.780;2023-03-14T08:20:06;6.68;;;1.77;;
47455;SDS011;33202;48.512;-2.780;2023-03-14T08:22:33;13.25;;;2.05;;
47455;SDS011;33202;48.512;-2.780;2023-03-14T08:24:59;11.57;;;1.73;;
47455;SDS011;33202;48.512;-2.780;2023-03-14T08:27:25;9.73;;;1.77;;
47455;SDS011;33202;48.512;-2.780;2023-03-14T08:29:51;9.48;;;1.90;;
47455;SDS011;33202;48.512;-2.780;2023-03-14T08:32:17;10.05;;;1.90;;
47455;SDS011;33202;48.512;-2.780;2023-03-14T08:34:45;14.65;;;2.20;;
47455;SDS011;33202;48.512;-2.780;2023-03-14T08:37:11;11.57;;;2.30;;
47455;SDS011;33202;48.512;-2.780;2023-03-14T08:39:37;11.57;;;2.13;;
47455;SDS011;33202;48.512;-2.780;2023-03-14T08:42:03;11.10;;;2.08;;
47455;SDS011;33202;48.512;-2.780;2023-03-14T08:44:29;14.85;;;2.20;;
47455;SDS011;33202;48.512;-2.780;2023-03-14T08:46:55;12.52;;;1.70;;
47455;SDS011;33202;48.512;-2.780;2023-03-14T08:49:21;8.50;;;2.60;;
47455;SDS011;33202;48.512;-2.780;2023-03-14T08:51:47;9.15;;;1.80;;
47455;SDS011;33202;48.512;-2.780;2023-03-14T08:54:13;18.52;;;2.38;;
47455;SDS011;33202;48.512;-2.780;2023-03-14T08:56:39;10.95;;;1.90;;
47455;SDS011;33202;48.512;-2.780;2023-03-14T08:59:05;15.38;;;2.15;;
47455;SDS011;33202;48.512;-2.780;2023-03-14T09:01:31;16.73;;;2.10;;
47455;SDS011;33202;48.512;-2.780;2023-03-14T09:03:57;24.52;;;2.45;;
47455;SDS011;33202;48.512;-2.780;2023-03-14T09:06:23;11.02;;;2.00;;
47455;SDS011;33202;48.512;-2.780;2023-03-14T09:08:49;11.13;;;1.60;;
47455;SDS011;33202;48.512;-2.780;2023-03-14T09:11:15;10.45;;;2.17;;
47455;SDS011;33202;48.512;-2.780;2023-03-14T09:13:42;10.52;;;2.00;;
47455;SDS011;33202;48.512;-2.780;2023-03-14T09:16:08;12.25;;;2.22;;
47455;SDS011;33202;48.512;-2.780;2023-03-14T09:18:35;7.65;;;1.80;;
47455;SDS011;33202;48.512;-2.780;2023-03-14T09:21:01;9.32;;;1.70;;
47455;SDS011;33202;48.512;-2.780;2023-03-14T09:23:27;13.88;;;1.77;;
47455;SDS011;33202;48.512;-2.780;2023-03-14T09:25:59;11.00;;;1.85;;
47455;SDS011;33202;48.512;-2.780;2023-03-14T09:28:26;22.48;;;4.13;;
47455;SDS011;33202;48.512;-2.780;2023-03-14T09:30:52;16.20;;;2.42;;
47455;SDS011;33202;48.512;-2.780;2023-03-14T09:33:18;16.17;;;2.72;;
47455;SDS011;33202;48.512;-2.780;2023-03-14T09:35:44;14.55;;;2.40;;
47455;SDS011;33202;48.512;-2.780;2023-03-14T09:38:10;13.48;;;2.78;;
47455;SDS011;33202;48.512;-2.780;2023-03-14T09:40:37;14.80;;;2.30;;
47455;SDS011;33202;48.512;-2.780;2023-03-14T09:43:03;15.93;;;2.77;;
47455;SDS011;33202;48.512;-2.780;2023-03-14T09:45:33;27.75;;;3.85;;
47455;SDS011;33202;48.512;-2.780;2023-03-14T09:47:59;16.02;;;2.33;;
47455;SDS011;33202;48.512;-2.780;2023-03-14T09:50:30;14.27;;;2.60;;
47455;SDS011;33202;48.512;-2.780;2023-03-14T09:52:56;12.95;;;3.38;;
47455;SDS011;33202;48.512;-2.780;2023-03-14T09:57:50;21.17;;;2.42;;
47455;SDS011;33202;48.512;-2.780;2023-03-14T10:00:19;13.63;;;2.65;;
47455;SDS011;33202;48.512;-2.780;2023-03-14T10:02:51;22.80;;;2.90;;
47455;SDS011;33202;48.512;-2.780;2023-03-14T10:05:19;15.32;;;2.70;;
47455;SDS011;33202;48.512;-2.780;2023-03-14T10:07:45;16.92;;;2.55;;
47455;SDS011;33202;48.512;-2.780;2023-03-14T10:12:40;17.08;;;2.92;;
47455;SDS011;33202;48.512;-2.780;2023-03-14T10:15:11;13.90;;;2.55;;
47455;SDS011;33202;48.512;-2.780;2023-03-14T10:17:50;20.88;;;3.47;;
47455;SDS011;33202;48.512;-2.780;2023-03-14T10:20:27;15.80;;;2.67;;
47455;SDS011;33202;48.512;-2.780;2023-03-14T10:22:58;16.63;;;2.10;;
47455;SDS011;33202;48.512;-2.780;2023-03-14T10:25:27;13.95;;;2.42;;
47455;SDS011;33202;48.512;-2.780;2023-03-14T10:27:53;12.82;;;2.55;;
47455;SDS011;33202;48.512;-2.780;2023-03-14T10:32:54;17.02;;;2.90;;
47455;SDS011;33202;48.512;-2.780;2023-03-14T10:35:21;17.38;;;2.75;;
47455;SDS011;33202;48.512;-2.780;2023-03-14T10:37:52;13.73;;;1.98;;
47455;SDS011;33202;48.512;-2.780;2023-03-14T10:40:20;22.70;;;3.03;;
47455;SDS011;33202;48.512;-2.780;2023-03-14T10:42:48;10.75;;;2.00;;
47455;SDS011;33202;48.512;-2.780;2023-03-14T10:47:48;13.10;;;2.60;;
47455;SDS011;33202;48.512;-2.780;2023-03-14T10:50:21;14.50;;;2.35;;
47455;SDS011;33202;48.512;-2.780;2023-03-14T10:52:48;11.77;;;2.85;;
47455;SDS011;33202;48.512;-2.780;2023-03-14T10:55:16;12.57;;;2.90;;
47455;SDS011;33202;48.512;-2.780;2023-03-14T10:57:42;12.35;;;2.13;;
47455;SDS011;33202;48.512;-2.780;2023-03-14T11:00:13;15.40;;;2.08;;
47455;SDS011;33202;48.512;-2.780;2023-03-14T11:07:40;17.20;;;2.70;;
47455;SDS011;33202;48.512;-2.780;2023-03-14T11:12:54;27.63;;;4.10;;
47455;SDS011;33202;48.512;-2.780;2023-03-14T11:17:59;10.02;;;1.85;;
47455;SDS011;33202;48.512;-2.780;2023-03-14T11:20:32;13.52;;;2.47;;
47455;SDS011;33202;48.512;-2.780;2023-03-14T11:25:43;18.25;;;2.47;;
47455;SDS011;33202;48.512;-2.780;2023-03-14T11:28:18;16.45;;;2.80;;
47455;SDS011;33202;48.512;-2.780;2023-03-14T11:30:51;12.32;;;2.78;;
47455;SDS011;33202;48.512;-2.780;2023-03-14T11:33:20;12.40;;;2.58;;
47455;SDS011;33202;48.512;-2.780;2023-03-14T11:36:10;12.68;;;2.78;;
47455;SDS011;33202;48.512;-2.780;2023-03-14T11:41:03;13.85;;;1.80;;
47455;SDS011;33202;48.512;-2.780;2023-03-14T11:43:32;12.32;;;2.10;;
47455;SDS011;33202;48.512;-2.780;2023-03-14T11:46:04;13.25;;;2.15;;
47455;SDS011;33202;48.512;-2.780;2023-03-14T11:50:57;11.85;;;1.92;;
47455;SDS011;33202;48.512;-2.780;2023-03-14T11:53:45;13.55;;;2.45;;
47455;SDS011;33202;48.512;-2.780;2023-03-14T11:56:16;11.63;;;1.90;;
47455;SDS011;33202;48.512;-2.780;2023-03-14T11:58:47;11.25;;;2.15;;
47455;SDS011;33202;48.512;-2.780;2023-03-14T12:01:15;11.95;;;2.08;;
47455;SDS011;33202;48.512;-2.780;2023-03-14T12:03:46;11.00;;;2.25;;
47455;SDS011;33202;48.512;-2.780;2023-03-14T12:08:47;15.00;;;3.22;;
47455;SDS011;33202;48.512;-2.780;2023-03-14T12:11:17;19.00;;;3.05;;
47455;SDS011;33202;48.512;-2.780;2023-03-14T12:13:46;14.90;;;2.78;;
47455;SDS011;33202;48.512;-2.780;2023-03-14T12:18:57;8.35;;;1.45;;
47455;SDS011;33202;48.512;-2.780;2023-03-14T12:21:51;12.25;;;1.83;;
47455;SDS011;33202;48.512;-2.780;2023-03-14T12:24:19;12.30;;;2.30;;
47455;SDS011;33202;48.512;-2.780;2023-03-14T12:26:54;18.77;;;2.55;;
47455;SDS011;33202;48.512;-2.780;2023-03-14T12:29:20;12.38;;;2.17;;
47455;SDS011;33202;48.512;-2.780;2023-03-14T12:31:47;16.23;;;2.92;;
47455;SDS011;33202;48.512;-2.780;2023-03-14T12:41:44;13.90;;;2.78;;
47455;SDS011;33202;48.512;-2.780;2023-03-14T12:46:56;7.03;;;2.38;;
47455;SDS011;33202;48.512;-2.780;2023-03-14T12:49:28;17.27;;;2.90;;
47455;SDS011;33202;48.512;-2.780;2023-03-14T12:52:01;17.38;;;2.80;;
47455;SDS011;33202;48.512;-2.780;2023-03-14T13:02:17;13.43;;;2.20;;
47455;SDS011;33202;48.512;-2.780;2023-03-14T13:04:45;9.52;;;2.10;;
47455;SDS011;33202;48.512;-2.780;2023-03-14T13:09:52;6.18;;;1.52;;
47455;SDS011;33202;48.512;-2.780;2023-03-14T13:12:22;11.80;;;1.80;;
47455;SDS011;33202;48.512;-2.780;2023-03-14T13:14:49;9.10;;;1.60;;
47455;SDS011;33202;48.512;-2.780;2023-03-14T13:17:22;8.63;;;1.40;;
47455;SDS011;33202;48.512;-2.780;2023-03-14T13:19:50;7.63;;;1.60;;
47455;SDS011;33202;48.512;-2.780;2023-03-14T13:22:22;8.07;;;1.42;;
47455;SDS011;33202;48.512;-2.780;2023-03-14T13:24:50;6.93;;;1.50;;
47455;SDS011;33202;48.512;-2.780;2023-03-14T13:27:17;6.80;;;1.83;;
47455;SDS011;33202;48.512;-2.780;2023-03-14T13:29:45;6.38;;;1.23;;
47455;SDS011;33202;48.512;-2.780;2023-03-14T13:32:19;8.20;;;1.42;;
47455;SDS011;33202;48.512;-2.780;2023-03-14T13:34:45;7.25;;;0.93;;
47455;SDS011;33202;48.512;-2.780;2023-03-14T13:37:20;5.18;;;1.00;;
47455;SDS011;33202;48.512;-2.780;2023-03-14T13:39:53;5.40;;;0.93;;
47455;SDS011;33202;48.512;-2.780;2023-03-14T13:42:20;2.95;;;0.95;;
47455;SDS011;33202;48.512;-2.780;2023-03-14T13:44:46;2.53;;;1.00;;
47455;SDS011;33202;48.512;-2.780;2023-03-14T13:47:14;5.32;;;0.90;;
47455;SDS011;33202;48.512;-2.780;2023-03-14T13:49:40;4.05;;;0.90;;
47455;SDS011;33202;48.512;-2.780;2023-03-14T13:54:48;7.35;;;0.93;;
47455;SDS011;33202;48.512;-2.780;2023-03-14T13:57:14;5.35;;;1.00;;
47455;SDS011;33202;48.512;-2.780;2023-03-14T13:59:40;4.95;;;1.15;;
47455;SDS011;33202;48.512;-2.780;2023-03-14T14:02:12;6.78;;;1.20;;
47455;SDS011;33202;48.512;-2.780;2023-03-14T14:04:39;5.32;;;1.00;;
47455;SDS011;33202;48.512;-2.780;2023-03-14T14:07:09;3.33;;;0.77;;
47455;SDS011;33202;48.512;-2.780;2023-03-14T14:09:40;7.53;;;1.25;;
47455;SDS011;33202;48.512;-2.780;2023-03-14T14:12:13;4.65;;;0.98;;
47455;SDS011;33202;48.512;-2.780;2023-03-14T14:14:41;5.13;;;0.93;;
47455;SDS011;33202;48.512;-2.780;2023-03-14T14:17:14;6.38;;;0.70;;
47455;SDS011;33202;48.512;-2.780;2023-03-14T14:19:42;6.45;;;1.08;;
47455;SDS011;33202;48.512;-2.780;2023-03-14T14:22:09;14.88;;;1.65;;
47455;SDS011;33202;48.512;-2.780;2023-03-14T14:24:36;4.55;;;0.90;;
47455;SDS011;33202;48.512;-2.780;2023-03-14T14:29:38;7.00;;;1.00;;
47455;SDS011;33202;48.512;-2.780;2023-03-14T14:34:40;3.17;;;1.15;;
47455;SDS011;33202;48.512;-2.780;2023-03-14T14:37:41;5.05;;;1.38;;
47455;SDS011;33202;48.512;-2.780;2023-03-14T14:40:33;5.72;;;1.10;;
47455;SDS011;33202;48.512;-2.780;2023-03-14T14:42:52;6.28;;;0.95;;
47455;SDS011;33202;48.512;-2.780;2023-03-14T14:45:25;4.83;;;0.87;;
47455;SDS011;33202;48.512;-2.780;2023-03-14T14:47:54;6.60;;;1.75;;
47455;SDS011;33202;48.512;-2.780;2023-03-14T14:50:30;7.72;;;1.02;;
47455;SDS011;33202;48.512;-2.780;2023-03-14T14:52:58;9.80;;;1.50;;
47455;SDS011;33202;48.512;-2.780;2023-03-14T14:55:28;8.48;;;1.50;;
47455;SDS011;33202;48.512;-2.780;2023-03-14T14:57:55;5.80;;;1.10;;
47455;SDS011;33202;48.512;-2.780;2023-03-14T15:00:22;8.03;;;1.67;;
47455;SDS011;33202;48.512;-2.780;2023-03-14T15:02:49;14.00;;;1.63;;
47455;SDS011;33202;48.512;-2.780;2023-03-14T15:05:20;7.05;;;1.48;;
47455;SDS011;33202;48.512;-2.780;2023-03-14T15:07:47;8.50;;;1.45;;
47455;SDS011;33202;48.512;-2.780;2023-03-14T15:12:40;11.53;;;1.53;;
47455;SDS011;33202;48.512;-2.780;2023-03-14T15:15:06;7.10;;;1.63;;
47455;SDS011;33202;48.512;-2.780;2023-03-14T15:17:32;9.73;;;1.97;;
47455;SDS011;33202;48.512;-2.780;2023-03-14T15:19:58;7.25;;;1.25;;
47455;SDS011;33202;48.512;-2.780;2023-03-14T15:22:24;6.60;;;1.33;;
47455;SDS011;33202;48.512;-2.780;2023-03-14T15:24:50;10.27;;;1.48;;
47455;SDS011;33202;48.512;-2.780;2023-03-14T15:27:17;5.50;;;1.35;;
47455;SDS011;33202;48.512;-2.780;2023-03-14T15:29:43;10.27;;;1.33;;
47455;SDS011;33202;48.512;-2.780;2023-03-14T15:32:13;6.45;;;1.75;;
47455;SDS011;33202;48.512;-2.780;2023-03-14T15:34:39;6.85;;;1.65;;
47455;SDS011;33202;48.512;-2.780;2023-03-14T15:37:10;8.57;;;1.30;;